Terminal Aerodrome Forecast
Issued by NWS Cleveland, OH

Home | Current Version | Previous Version | Text Only | Print | Product List | Glossary On
Versions: 1 2 3 4 5 6 7 8 9 10 11 12 13 14 15 16 17 18 19 20 21 22 23 24 25 26 27 28 29 30 31 32 33 34 35 36 37
000
FTUS41 KCLE 060500
TAFCLE
TAF
KCLE 060539Z 0606/0712 19004KT P6SM SKC
     FM061600 21010KT P6SM SCT120 BKN200
     FM062300 21010KT P6SM BKN060 OVC120
     FM070200 21013KT P6SM OVC060=

USA.gov is the U.S. government's official web portal to all federal, state and local government web resources and services.